KBBW/BBW METAR and TAF weather

Enter ICAO airport designator
Station Type Date Time Source
KBBW METAR 2022/01/19 18:53 UTC NOAA

KBBW 191853Z AUTO 35018G25KT 10SM BKN100 M10/M21 A3044 RMK AO2 PK WND 34027/1841 SLP349 T11001206


Station Type Date Time Source
KBBW Decoded METAR 2022/01/19 18:53 UTC NOAA

BROKEN BOW MUNICIPAL AIRPORT, NE, United States (KBBW) 41-26N 099-38W
Jan 19, 2022 - 01:53 PM EST / 2022.01.19 1853 UTC
Wind: from the N (350 degrees) at 21 MPH (18 KT) gusting to 29 MPH (25 KT):0
Visibility: 10 mile(s):0
Sky conditions: mostly cloudy
Temperature: 14.0 F (-10.0 C)
Windchill: -4 F (-20 C):1
Dew Point: -5.1 F (-20.6 C)
Relative Humidity: 41%
Pressure (altimeter): 30.44 in. Hg (1030 hPa)
ob: KBBW 191853Z AUTO 35018G25KT 10SM BKN100 M10/M21 A3044 RMK AO2 PK WND 34027/1841 SLP349 T11001206
cycle: 19

Station Type Date Time Source
KBBW TAF UTC NOAA

Error!

Example: see airport list